Main page
METAR-TAF:

METAR-TAF

Airports :

Comanche County–City Airport

Comanche, Texas, United States

latitude: 31-55N, longitude: 098-36-01W, elevation: 1387 ft

Current weather observation

The report was made 12 minutes ago, at 19:15 UTC
Wind 17 mph from the South/Southeast with gusts up to 23 mph
Temperature 95°F
Humidity 47%
Pressure 29.82 in. Hg
Visibility: 10 miles
Scattered clouds at a height of 4900 ft
Scattered clouds at a height of 5500 ft

METAR: KMKN 171915Z AUTO 15015G20KT 10SM SCT049 SCT055 35/22 A2982 RMK AO2 T03470216

Time: 14:27 (19:27 UTC)


TAF: missing

Weather observations and forecasts of more than 4000 airports (METAR and TAF reports).

The available stations are represented by yellow and red dots on the map.

Hover mouse over dot to see the name of the station.

Then click to see weather observations and forecasts.

To change the map : click on the green buttons with a black cross to zoom in, on the green button with a dash to zoom out, or on the green arrows for adjacent maps.


METAR-TAF: